sensor_id;sensor_type;location;lat;lon;timestamp;P1;durP1;ratioP1;P2;durP2;ratioP2
30010;SDS011;16851;53.564;8.112;2023-02-01T00:03:49;48.97;;;7.63;;
30010;SDS011;16851;53.564;8.112;2023-02-01T00:08:53;39.70;;;6.97;;
30010;SDS011;16851;53.564;8.112;2023-02-01T00:13:56;25.07;;;4.60;;
30010;SDS011;16851;53.564;8.112;2023-02-01T00:18:59;47.63;;;7.73;;
30010;SDS011;16851;53.564;8.112;2023-02-01T00:24:05;50.37;;;8.37;;
30010;SDS011;16851;53.564;8.112;2023-02-01T00:29:13;62.73;;;8.47;;
30010;SDS011;16851;53.564;8.112;2023-02-01T00:34:19;53.90;;;8.00;;
30010;SDS011;16851;53.564;8.112;2023-02-01T00:39:21;33.63;;;5.30;;
30010;SDS011;16851;53.564;8.112;2023-02-01T00:44:27;41.97;;;7.30;;
30010;SDS011;16851;53.564;8.112;2023-02-01T00:49:32;50.10;;;7.57;;
30010;SDS011;16851;53.564;8.112;2023-02-01T00:54:38;53.50;;;8.03;;
30010;SDS011;16851;53.564;8.112;2023-02-01T00:59:40;53.63;;;9.03;;
30010;SDS011;16851;53.564;8.112;2023-02-01T01:04:44;47.03;;;6.97;;
30010;SDS011;16851;53.564;8.112;2023-02-01T01:09:50;49.77;;;8.57;;
30010;SDS011;16851;53.564;8.112;2023-02-01T01:14:53;50.50;;;7.93;;
30010;SDS011;16851;53.564;8.112;2023-02-01T01:19:58;44.87;;;7.57;;
30010;SDS011;16851;53.564;8.112;2023-02-01T01:25:00;43.20;;;6.43;;
30010;SDS011;16851;53.564;8.112;2023-02-01T01:30:04;40.37;;;7.57;;
30010;SDS011;16851;53.564;8.112;2023-02-01T01:35:06;52.47;;;8.13;;
30010;SDS011;16851;53.564;8.112;2023-02-01T01:40:14;50.47;;;7.40;;
30010;SDS011;16851;53.564;8.112;2023-02-01T01:50:50;67.23;;;9.63;;
30010;SDS011;16851;53.564;8.112;2023-02-01T01:55:53;56.60;;;7.87;;
30010;SDS011;16851;53.564;8.112;2023-02-01T02:00:57;53.27;;;8.40;;
30010;SDS011;16851;53.564;8.112;2023-02-01T02:06:07;27.27;;;5.10;;
30010;SDS011;16851;53.564;8.112;2023-02-01T02:11:16;25.17;;;4.00;;
30010;SDS011;16851;53.564;8.112;2023-02-01T02:38:18;37.40;;;5.70;;
30010;SDS011;16851;53.564;8.112;2023-02-01T02:43:39;39.80;;;5.70;;
30010;SDS011;16851;53.564;8.112;2023-02-01T02:54:25;36.90;;;4.90;;
30010;SDS011;16851;53.564;8.112;2023-02-01T02:59:49;25.17;;;5.07;;
30010;SDS011;16851;53.564;8.112;2023-02-01T03:05:11;40.70;;;5.07;;
30010;SDS011;16851;53.564;8.112;2023-02-01T03:15:51;39.93;;;5.73;;
30010;SDS011;16851;53.564;8.112;2023-02-01T03:20:59;36.70;;;5.73;;
30010;SDS011;16851;53.564;8.112;2023-02-01T03:26:03;38.73;;;7.13;;
30010;SDS011;16851;53.564;8.112;2023-02-01T03:31:07;55.37;;;7.33;;
30010;SDS011;16851;53.564;8.112;2023-02-01T03:36:20;39.37;;;4.83;;
30010;SDS011;16851;53.564;8.112;2023-02-01T03:41:34;26.10;;;4.53;;
30010;SDS011;16851;53.564;8.112;2023-02-01T03:46:59;41.30;;;5.67;;
30010;SDS011;16851;53.564;8.112;2023-02-01T03:52:09;32.93;;;6.27;;
30010;SDS011;16851;53.564;8.112;2023-02-01T03:57:19;38.33;;;6.20;;
30010;SDS011;16851;53.564;8.112;2023-02-01T04:02:28;43.60;;;7.00;;
30010;SDS011;16851;53.564;8.112;2023-02-01T04:07:32;57.77;;;7.60;;
30010;SDS011;16851;53.564;8.112;2023-02-01T04:12:35;40.97;;;7.07;;
30010;SDS011;16851;53.564;8.112;2023-02-01T04:17:38;30.60;;;4.97;;
30010;SDS011;16851;53.564;8.112;2023-02-01T04:22:42;55.20;;;8.63;;
30010;SDS011;16851;53.564;8.112;2023-02-01T04:27:44;57.10;;;8.23;;
30010;SDS011;16851;53.564;8.112;2023-02-01T04:32:48;47.47;;;7.10;;
30010;SDS011;16851;53.564;8.112;2023-02-01T04:37:52;30.87;;;5.30;;
30010;SDS011;16851;53.564;8.112;2023-02-01T04:42:57;34.60;;;4.60;;
30010;SDS011;16851;53.564;8.112;2023-02-01T04:48:01;21.90;;;3.53;;
30010;SDS011;16851;53.564;8.112;2023-02-01T04:53:04;16.10;;;2.97;;
30010;SDS011;16851;53.564;8.112;2023-02-01T04:58:05;52.23;;;6.90;;
30010;SDS011;16851;53.564;8.112;2023-02-01T05:03:09;48.00;;;7.27;;
30010;SDS011;16851;53.564;8.112;2023-02-01T05:08:13;35.57;;;5.60;;
30010;SDS011;16851;53.564;8.112;2023-02-01T05:13:20;49.87;;;6.27;;
30010;SDS011;16851;53.564;8.112;2023-02-01T05:18:41;33.23;;;6.03;;
30010;SDS011;16851;53.564;8.112;2023-02-01T05:23:45;27.63;;;3.57;;
30010;SDS011;16851;53.564;8.112;2023-02-01T05:29:05;18.50;;;3.40;;
30010;SDS011;16851;53.564;8.112;2023-02-01T05:34:13;28.90;;;4.67;;
30010;SDS011;16851;53.564;8.112;2023-02-01T05:39:20;29.80;;;4.67;;
30010;SDS011;16851;53.564;8.112;2023-02-01T05:44:21;45.60;;;6.03;;
30010;SDS011;16851;53.564;8.112;2023-02-01T05:49:23;44.33;;;6.83;;
30010;SDS011;16851;53.564;8.112;2023-02-01T05:54:25;49.00;;;6.77;;
30010;SDS011;16851;53.564;8.112;2023-02-01T05:59:26;51.40;;;7.33;;
30010;SDS011;16851;53.564;8.112;2023-02-01T06:04:32;56.60;;;8.70;;
30010;SDS011;16851;53.564;8.112;2023-02-01T06:09:36;48.20;;;7.57;;
30010;SDS011;16851;53.564;8.112;2023-02-01T06:14:38;31.53;;;5.67;;
30010;SDS011;16851;53.564;8.112;2023-02-01T06:19:47;42.40;;;5.80;;
30010;SDS011;16851;53.564;8.112;2023-02-01T06:24:49;28.90;;;3.87;;
30010;SDS011;16851;53.564;8.112;2023-02-01T06:29:51;46.43;;;7.10;;
30010;SDS011;16851;53.564;8.112;2023-02-01T06:34:59;47.83;;;7.23;;
30010;SDS011;16851;53.564;8.112;2023-02-01T06:40:03;44.23;;;6.73;;
30010;SDS011;16851;53.564;8.112;2023-02-01T06:45:10;34.17;;;5.20;;
30010;SDS011;16851;53.564;8.112;2023-02-01T06:50:16;34.23;;;4.57;;
30010;SDS011;16851;53.564;8.112;2023-02-01T06:55:22;62.60;;;7.63;;
30010;SDS011;16851;53.564;8.112;2023-02-01T07:00:26;60.20;;;7.97;;
30010;SDS011;16851;53.564;8.112;2023-02-01T07:05:34;54.83;;;7.63;;
30010;SDS011;16851;53.564;8.112;2023-02-01T07:10:38;45.57;;;6.50;;
30010;SDS011;16851;53.564;8.112;2023-02-01T07:15:44;47.13;;;6.27;;
30010;SDS011;16851;53.564;8.112;2023-02-01T07:20:49;42.10;;;5.43;;
30010;SDS011;16851;53.564;8.112;2023-02-01T07:25:55;44.73;;;6.87;;
30010;SDS011;16851;53.564;8.112;2023-02-01T07:31:04;39.67;;;5.43;;
30010;SDS011;16851;53.564;8.112;2023-02-01T07:36:11;26.63;;;4.30;;
30010;SDS011;16851;53.564;8.112;2023-02-01T07:41:17;25.80;;;5.38;;
30010;SDS011;16851;53.564;8.112;2023-02-01T07:46:19;34.80;;;5.83;;
30010;SDS011;16851;53.564;8.112;2023-02-01T07:51:22;41.03;;;6.67;;
30010;SDS011;16851;53.564;8.112;2023-02-01T07:56:25;30.77;;;5.00;;
30010;SDS011;16851;53.564;8.112;2023-02-01T08:01:29;39.40;;;6.47;;
30010;SDS011;16851;53.564;8.112;2023-02-01T08:06:31;31.83;;;6.10;;
30010;SDS011;16851;53.564;8.112;2023-02-01T08:11:34;41.03;;;5.83;;
30010;SDS011;16851;53.564;8.112;2023-02-01T08:16:44;40.53;;;5.10;;
30010;SDS011;16851;53.564;8.112;2023-02-01T08:21:46;37.77;;;5.17;;
30010;SDS011;16851;53.564;8.112;2023-02-01T08:26:50;38.73;;;5.70;;
30010;SDS011;16851;53.564;8.112;2023-02-01T08:31:56;26.57;;;6.00;;
30010;SDS011;16851;53.564;8.112;2023-02-01T08:36:58;31.27;;;4.80;;
30010;SDS011;16851;53.564;8.112;2023-02-01T08:42:03;32.37;;;5.30;;
30010;SDS011;16851;53.564;8.112;2023-02-01T08:47:23;25.97;;;3.57;;
30010;SDS011;16851;53.564;8.112;2023-02-01T08:52:26;21.60;;;3.23;;
30010;SDS011;16851;53.564;8.112;2023-02-01T08:57:33;40.50;;;5.73;;
30010;SDS011;16851;53.564;8.112;2023-02-01T09:02:42;39.30;;;5.23;;
30010;SDS011;16851;53.564;8.112;2023-02-01T09:07:44;40.97;;;6.17;;
30010;SDS011;16851;53.564;8.112;2023-02-01T09:12:49;30.33;;;5.33;;
30010;SDS011;16851;53.564;8.112;2023-02-01T09:17:51;30.70;;;5.00;;
30010;SDS011;16851;53.564;8.112;2023-02-01T09:22:54;34.77;;;5.23;;
30010;SDS011;16851;53.564;8.112;2023-02-01T09:28:00;35.33;;;5.57;;
30010;SDS011;16851;53.564;8.112;2023-02-01T09:33:05;24.10;;;3.87;;
30010;SDS011;16851;53.564;8.112;2023-02-01T09:38:06;27.63;;;4.60;;
30010;SDS011;16851;53.564;8.112;2023-02-01T09:43:22;28.27;;;5.20;;
30010;SDS011;16851;53.564;8.112;2023-02-01T09:48:52;31.47;;;5.07;;
30010;SDS011;16851;53.564;8.112;2023-02-01T09:54:06;29.33;;;5.37;;
30010;SDS011;16851;53.564;8.112;2023-02-01T10:04:26;35.30;;;6.43;;
30010;SDS011;16851;53.564;8.112;2023-02-01T10:09:50;34.93;;;5.47;;
30010;SDS011;16851;53.564;8.112;2023-02-01T10:25:47;40.87;;;6.53;;
30010;SDS011;16851;53.564;8.112;2023-02-01T10:30:56;26.37;;;5.33;;
30010;SDS011;16851;53.564;8.112;2023-02-01T10:36:08;30.50;;;5.70;;
30010;SDS011;16851;53.564;8.112;2023-02-01T10:41:19;22.67;;;3.93;;
30010;SDS011;16851;53.564;8.112;2023-02-01T10:46:25;23.77;;;3.97;;
30010;SDS011;16851;53.564;8.112;2023-02-01T10:51:42;21.70;;;3.30;;
30010;SDS011;16851;53.564;8.112;2023-02-01T10:56:44;20.97;;;3.40;;
30010;SDS011;16851;53.564;8.112;2023-02-01T11:01:49;9.37;;;1.40;;
30010;SDS011;16851;53.564;8.112;2023-02-01T11:07:16;4.37;;;0.97;;
30010;SDS011;16851;53.564;8.112;2023-02-01T11:12:38;14.80;;;6.10;;
30010;SDS011;16851;53.564;8.112;2023-02-01T11:17:41;55.60;;;6.43;;
30010;SDS011;16851;53.564;8.112;2023-02-01T11:22:53;6.67;;;1.30;;
30010;SDS011;16851;53.564;8.112;2023-02-01T11:27:58;5.17;;;1.30;;
30010;SDS011;16851;53.564;8.112;2023-02-01T11:33:04;7.17;;;1.53;;
30010;SDS011;16851;53.564;8.112;2023-02-01T11:43:56;8.13;;;1.40;;
30010;SDS011;16851;53.564;8.112;2023-02-01T11:54:30;7.93;;;1.43;;
30010;SDS011;16851;53.564;8.112;2023-02-01T12:21:38;6.47;;;1.27;;
30010;SDS011;16851;53.564;8.112;2023-02-01T12:42:57;20.23;;;1.77;;
30010;SDS011;16851;53.564;8.112;2023-02-01T12:58:51;14.13;;;2.10;;
30010;SDS011;16851;53.564;8.112;2023-02-01T13:19:57;22.77;;;3.33;;
30010;SDS011;16851;53.564;8.112;2023-02-01T13:31:03;21.03;;;3.50;;
30010;SDS011;16851;53.564;8.112;2023-02-01T13:36:02;24.40;;;3.57;;
30010;SDS011;16851;53.564;8.112;2023-02-01T13:46:29;21.03;;;4.73;;
30010;SDS011;16851;53.564;8.112;2023-02-01T13:56:44;21.27;;;3.53;;
30010;SDS011;16851;53.564;8.112;2023-02-01T14:01:46;26.07;;;5.13;;
30010;SDS011;16851;53.564;8.112;2023-02-01T14:06:49;27.30;;;4.80;;
30010;SDS011;16851;53.564;8.112;2023-02-01T14:12:42;30.43;;;4.50;;
30010;SDS011;16851;53.564;8.112;2023-02-01T14:17:40;33.43;;;5.87;;
30010;SDS011;16851;53.564;8.112;2023-02-01T14:22:43;20.83;;;3.27;;
30010;SDS011;16851;53.564;8.112;2023-02-01T14:27:50;38.67;;;6.63;;
30010;SDS011;16851;53.564;8.112;2023-02-01T14:32:57;35.53;;;6.63;;
30010;SDS011;16851;53.564;8.112;2023-02-01T14:38:08;27.30;;;5.67;;
30010;SDS011;16851;53.564;8.112;2023-02-01T14:43:13;33.50;;;5.57;;
30010;SDS011;16851;53.564;8.112;2023-02-01T14:53:40;25.13;;;4.17;;
30010;SDS011;16851;53.564;8.112;2023-02-01T15:04:15;25.97;;;5.23;;
30010;SDS011;16851;53.564;8.112;2023-02-01T15:14:41;29.37;;;5.10;;
30010;SDS011;16851;53.564;8.112;2023-02-01T15:19:53;42.90;;;6.67;;
30010;SDS011;16851;53.564;8.112;2023-02-01T15:25:02;37.63;;;6.33;;
30010;SDS011;16851;53.564;8.112;2023-02-01T15:30:05;38.93;;;6.47;;
30010;SDS011;16851;53.564;8.112;2023-02-01T15:40:37;36.27;;;6.23;;
30010;SDS011;16851;53.564;8.112;2023-02-01T15:45:39;27.80;;;5.23;;
30010;SDS011;16851;53.564;8.112;2023-02-01T15:50:41;29.20;;;5.37;;
30010;SDS011;16851;53.564;8.112;2023-02-01T15:55:43;41.67;;;6.97;;
30010;SDS011;16851;53.564;8.112;2023-02-01T16:01:02;36.03;;;6.23;;
30010;SDS011;16851;53.564;8.112;2023-02-01T16:06:07;48.85;;;8.07;;
30010;SDS011;16851;53.564;8.112;2023-02-01T16:11:23;52.97;;;6.20;;
30010;SDS011;16851;53.564;8.112;2023-02-01T16:16:36;27.53;;;5.47;;
30010;SDS011;16851;53.564;8.112;2023-02-01T16:21:37;29.13;;;4.53;;
30010;SDS011;16851;53.564;8.112;2023-02-01T16:26:39;35.63;;;5.70;;
30010;SDS011;16851;53.564;8.112;2023-02-01T16:31:49;48.10;;;6.37;;
30010;SDS011;16851;53.564;8.112;2023-02-01T16:36:56;53.57;;;8.47;;
30010;SDS011;16851;53.564;8.112;2023-02-01T16:41:58;44.47;;;6.93;;
30010;SDS011;16851;53.564;8.112;2023-02-01T16:47:02;40.57;;;6.00;;
30010;SDS011;16851;53.564;8.112;2023-02-01T16:52:04;37.27;;;5.50;;
30010;SDS011;16851;53.564;8.112;2023-02-01T16:57:11;33.27;;;5.50;;
30010;SDS011;16851;53.564;8.112;2023-02-01T17:02:17;31.97;;;3.87;;
30010;SDS011;16851;53.564;8.112;2023-02-01T17:07:23;30.90;;;4.93;;
30010;SDS011;16851;53.564;8.112;2023-02-01T17:12:28;43.13;;;6.27;;
30010;SDS011;16851;53.564;8.112;2023-02-01T17:17:35;53.03;;;6.80;;
30010;SDS011;16851;53.564;8.112;2023-02-01T17:22:39;32.20;;;6.13;;
30010;SDS011;16851;53.564;8.112;2023-02-01T17:27:41;44.77;;;7.40;;
30010;SDS011;16851;53.564;8.112;2023-02-01T17:32:44;42.80;;;5.77;;
30010;SDS011;16851;53.564;8.112;2023-02-01T17:37:49;33.27;;;4.60;;
30010;SDS011;16851;53.564;8.112;2023-02-01T17:42:51;39.90;;;6.03;;
30010;SDS011;16851;53.564;8.112;2023-02-01T17:48:02;33.90;;;5.30;;
30010;SDS011;16851;53.564;8.112;2023-02-01T17:53:08;38.10;;;5.90;;
30010;SDS011;16851;53.564;8.112;2023-02-01T17:58:17;44.55;;;7.47;;
30010;SDS011;16851;53.564;8.112;2023-02-01T18:03:27;45.33;;;6.40;;
30010;SDS011;16851;53.564;8.112;2023-02-01T18:08:33;25.73;;;4.40;;
30010;SDS011;16851;53.564;8.112;2023-02-01T18:13:36;43.93;;;6.40;;
30010;SDS011;16851;53.564;8.112;2023-02-01T18:18:43;33.80;;;5.60;;
30010;SDS011;16851;53.564;8.112;2023-02-01T18:23:58;14.67;;;3.10;;
30010;SDS011;16851;53.564;8.112;2023-02-01T18:29:05;41.87;;;5.60;;
30010;SDS011;16851;53.564;8.112;2023-02-01T18:34:08;45.10;;;7.60;;
30010;SDS011;16851;53.564;8.112;2023-02-01T18:39:10;31.07;;;5.60;;
30010;SDS011;16851;53.564;8.112;2023-02-01T18:44:12;44.37;;;7.10;;
30010;SDS011;16851;53.564;8.112;2023-02-01T18:49:18;19.30;;;3.93;;
30010;SDS011;16851;53.564;8.112;2023-02-01T18:54:20;33.87;;;5.13;;
30010;SDS011;16851;53.564;8.112;2023-02-01T18:59:27;42.27;;;5.60;;
30010;SDS011;16851;53.564;8.112;2023-02-01T19:04:28;40.93;;;6.03;;
30010;SDS011;16851;53.564;8.112;2023-02-01T19:09:38;19.00;;;3.67;;
30010;SDS011;16851;53.564;8.112;2023-02-01T19:14:40;26.70;;;4.77;;
30010;SDS011;16851;53.564;8.112;2023-02-01T19:19:44;33.80;;;5.07;;
30010;SDS011;16851;53.564;8.112;2023-02-01T19:24:51;31.07;;;5.03;;
30010;SDS011;16851;53.564;8.112;2023-02-01T19:29:57;31.47;;;5.00;;
30010;SDS011;16851;53.564;8.112;2023-02-01T19:35:03;34.27;;;5.27;;
30010;SDS011;16851;53.564;8.112;2023-02-01T19:40:09;41.57;;;6.37;;
30010;SDS011;16851;53.564;8.112;2023-02-01T19:45:14;39.17;;;5.70;;
30010;SDS011;16851;53.564;8.112;2023-02-01T19:50:18;39.10;;;5.83;;
30010;SDS011;16851;53.564;8.112;2023-02-01T19:55:21;36.93;;;6.07;;
30010;SDS011;16851;53.564;8.112;2023-02-01T20:00:26;44.47;;;6.03;;
30010;SDS011;16851;53.564;8.112;2023-02-01T20:05:30;38.90;;;5.60;;
30010;SDS011;16851;53.564;8.112;2023-02-01T20:10:34;45.80;;;6.00;;
30010;SDS011;16851;53.564;8.112;2023-02-01T20:15:40;34.60;;;5.57;;
30010;SDS011;16851;53.564;8.112;2023-02-01T20:20:47;28.73;;;4.83;;
30010;SDS011;16851;53.564;8.112;2023-02-01T20:25:51;33.00;;;5.27;;
30010;SDS011;16851;53.564;8.112;2023-02-01T20:30:53;36.07;;;5.17;;
30010;SDS011;16851;53.564;8.112;2023-02-01T20:36:00;22.77;;;4.67;;
30010;SDS011;16851;53.564;8.112;2023-02-01T20:41:07;35.57;;;5.30;;
30010;SDS011;16851;53.564;8.112;2023-02-01T20:46:12;35.40;;;5.83;;
30010;SDS011;16851;53.564;8.112;2023-02-01T20:51:15;37.33;;;4.87;;
30010;SDS011;16851;53.564;8.112;2023-02-01T20:56:19;42.80;;;6.90;;
30010;SDS011;16851;53.564;8.112;2023-02-01T21:01:23;40.83;;;6.17;;
30010;SDS011;16851;53.564;8.112;2023-02-01T21:06:25;32.17;;;5.53;;
30010;SDS011;16851;53.564;8.112;2023-02-01T21:11:29;40.23;;;6.50;;
30010;SDS011;16851;53.564;8.112;2023-02-01T21:16:33;35.27;;;6.23;;
30010;SDS011;16851;53.564;8.112;2023-02-01T21:21:39;34.53;;;5.97;;
30010;SDS011;16851;53.564;8.112;2023-02-01T21:26:44;42.57;;;7.33;;
30010;SDS011;16851;53.564;8.112;2023-02-01T21:31:48;31.73;;;5.37;;
30010;SDS011;16851;53.564;8.112;2023-02-01T21:36:57;45.47;;;7.30;;
30010;SDS011;16851;53.564;8.112;2023-02-01T21:42:02;47.97;;;6.83;;
30010;SDS011;16851;53.564;8.112;2023-02-01T21:47:19;43.77;;;6.97;;
30010;SDS011;16851;53.564;8.112;2023-02-01T21:52:27;42.03;;;6.53;;
30010;SDS011;16851;53.564;8.112;2023-02-01T21:57:31;50.53;;;7.77;;
30010;SDS011;16851;53.564;8.112;2023-02-01T22:02:34;34.60;;;5.33;;
30010;SDS011;16851;53.564;8.112;2023-02-01T22:07:41;36.10;;;5.77;;
30010;SDS011;16851;53.564;8.112;2023-02-01T22:12:46;41.70;;;6.03;;
30010;SDS011;16851;53.564;8.112;2023-02-01T22:17:47;38.77;;;6.40;;
30010;SDS011;16851;53.564;8.112;2023-02-01T22:22:56;35.20;;;5.73;;
30010;SDS011;16851;53.564;8.112;2023-02-01T22:27:58;48.00;;;7.90;;
30010;SDS011;16851;53.564;8.112;2023-02-01T22:33:20;38.97;;;5.87;;
30010;SDS011;16851;53.564;8.112;2023-02-01T22:38:24;40.83;;;6.60;;
30010;SDS011;16851;53.564;8.112;2023-02-01T22:43:27;41.47;;;6.13;;
30010;SDS011;16851;53.564;8.112;2023-02-01T22:48:29;23.87;;;3.87;;
30010;SDS011;16851;53.564;8.112;2023-02-01T22:53:34;37.23;;;6.27;;
30010;SDS011;16851;53.564;8.112;2023-02-01T22:58:40;29.13;;;5.37;;
30010;SDS011;16851;53.564;8.112;2023-02-01T23:03:45;25.17;;;5.13;;
30010;SDS011;16851;53.564;8.112;2023-02-01T23:08:56;36.67;;;5.80;;
30010;SDS011;16851;53.564;8.112;2023-02-01T23:14:03;25.03;;;3.70;;
30010;SDS011;16851;53.564;8.112;2023-02-01T23:19:04;38.60;;;6.83;;
30010;SDS011;16851;53.564;8.112;2023-02-01T23:24:08;47.17;;;7.03;;
30010;SDS011;16851;53.564;8.112;2023-02-01T23:29:14;40.73;;;6.90;;
30010;SDS011;16851;53.564;8.112;2023-02-01T23:34:17;49.97;;;6.70;;
30010;SDS011;16851;53.564;8.112;2023-02-01T23:39:23;41.80;;;7.40;;
30010;SDS011;16851;53.564;8.112;2023-02-01T23:44:28;56.17;;;8.07;;
30010;SDS011;16851;53.564;8.112;2023-02-01T23:49:29;47.43;;;8.00;;
30010;SDS011;16851;53.564;8.112;2023-02-01T23:54:31;44.97;;;7.03;;
30010;SDS011;16851;53.564;8.112;2023-02-01T23:59:33;40.13;;;6.23;;
